createdAt,value
2022-07-27T03:56:52.275Z,13.26
2022-07-27T03:59:06.598Z,13.32
2022-07-27T04:01:21.240Z,13.45
2022-07-27T04:03:35.490Z,13.61
2022-07-27T04:05:51.834Z,13.8
2022-07-27T04:08:06.294Z,14
2022-07-27T04:10:20.652Z,14.2
2022-07-27T04:12:37.999Z,14.38
2022-07-27T04:14:54.359Z,14.53
2022-07-27T04:17:08.805Z,14.66
2022-07-27T04:19:26.026Z,14.78
2022-07-27T04:21:41.463Z,14.9
2022-07-27T04:23:55.841Z,15.01
2022-07-27T04:26:11.283Z,15.11
2022-07-27T04:28:25.676Z,15.21
2022-07-27T04:30:40.534Z,15.28
2022-07-27T04:32:54.962Z,15.34
2022-07-27T04:35:10.577Z,15.42
2022-07-27T04:37:25.223Z,15.48
2022-07-27T04:39:39.696Z,15.53
2022-07-27T04:41:54.025Z,15.57
2022-07-27T04:44:08.412Z,15.61
2022-07-27T04:46:22.887Z,15.63
2022-07-27T04:48:37.135Z,15.65
2022-07-27T04:50:54.424Z,15.66
2022-07-27T04:53:08.805Z,15.67
2022-07-27T04:55:23.157Z,15.69
2022-07-27T04:57:37.532Z,15.71
2022-07-27T04:59:51.872Z,15.74
2022-07-27T05:02:06.236Z,15.76
2022-07-27T05:04:21.636Z,15.79
2022-07-27T05:06:38.082Z,15.81
2022-07-27T05:08:52.408Z,15.83
2022-07-27T05:11:06.774Z,15.84
2022-07-27T05:13:21.134Z,15.86
2022-07-27T05:15:54.397Z,15.89
2022-07-27T05:17:52.825Z,15.91
2022-07-27T05:20:07.164Z,15.93
2022-07-27T05:22:21.566Z,15.95
2022-07-27T05:24:35.962Z,15.98
2022-07-27T05:26:50.345Z,16.01
2022-07-27T05:29:04.678Z,16.030001
2022-07-27T05:31:19.118Z,16.059999
2022-07-27T05:33:34.427Z,16.08
2022-07-27T05:35:49.772Z,16.110001
2022-07-27T05:38:04.148Z,16.129999
2022-07-27T05:40:18.615Z,16.139999
2022-07-27T05:42:33.058Z,16.15
2022-07-27T05:44:47.599Z,16.15
2022-07-27T05:47:01.950Z,16.139999
2022-07-27T05:49:18.389Z,16.16
2022-07-27T05:51:32.753Z,16.219999
2022-07-27T05:53:47.118Z,16.299999
2022-07-27T05:56:01.448Z,16.4
2022-07-27T05:58:15.783Z,16.52
2022-07-27T06:00:32.118Z,16.639999
2022-07-27T06:02:46.486Z,16.77
2022-07-27T06:05:00.851Z,16.91
2022-07-27T06:07:17.203Z,17.040001
2022-07-27T06:09:31.582Z,17.16
2022-07-27T06:11:46.166Z,17.24
2022-07-27T06:14:00.529Z,17.32
2022-07-27T06:16:14.987Z,17.379999
2022-07-27T06:18:29.345Z,17.41
2022-07-27T06:20:43.659Z,17.440001
2022-07-27T06:22:58.115Z,17.469999
2022-07-27T06:25:15.484Z,17.5
2022-07-27T06:27:30.693Z,17.52
2022-07-27T06:29:46.248Z,17.52
2022-07-27T06:32:00.699Z,17.5
2022-07-27T06:34:15.955Z,17.469999
2022-07-27T06:36:32.311Z,17.43
2022-07-27T06:38:46.709Z,17.43
2022-07-27T06:41:01.052Z,17.469999
2022-07-27T06:43:15.402Z,17.530001
2022-07-27T06:45:29.771Z,17.58
2022-07-27T06:47:48.719Z,17.639999
2022-07-27T06:49:59.511Z,17.709999
2022-07-27T06:52:13.875Z,17.809999
2022-07-27T06:54:28.227Z,17.93
2022-07-27T06:56:42.561Z,18.059999
2022-07-27T06:58:56.955Z,18.209999
2022-07-27T07:01:11.386Z,18.309999
2022-07-27T07:03:25.790Z,18.41
2022-07-27T07:05:40.296Z,18.469999
2022-07-27T07:07:54.787Z,18.48
2022-07-27T07:10:09.157Z,18.459999
2022-07-27T07:12:23.652Z,18.459999
2022-07-27T07:14:39.070Z,18.440001
2022-07-27T07:16:53.439Z,18.41
2022-07-27T07:19:07.807Z,18.389999
2022-07-27T07:21:22.192Z,18.379999
2022-07-27T07:23:37.571Z,18.360001
2022-07-27T07:25:51.963Z,18.32
2022-07-27T07:28:06.278Z,18.280001
2022-07-27T07:30:20.686Z,18.290001
2022-07-27T07:32:35.100Z,18.360001
2022-07-27T07:34:49.465Z,18.450001
2022-07-27T07:37:03.833Z,18.530001
2022-07-27T07:39:18.262Z,18.540001
2022-07-27T07:41:35.615Z,18.52
2022-07-27T07:43:50.972Z,18.49
2022-07-27T07:46:05.623Z,18.48
2022-07-27T07:48:19.835Z,18.51
2022-07-27T07:50:34.440Z,18.559999
2022-07-27T07:52:48.722Z,18.639999
2022-07-27T07:55:03.350Z,18.76
2022-07-27T07:57:17.729Z,18.809999
2022-07-27T07:59:32.350Z,18.83
2022-07-27T08:01:47.005Z,18.91
2022-07-27T08:04:01.330Z,18.940001
2022-07-27T08:06:15.718Z,18.950001
2022-07-27T08:08:30.197Z,18.959999
2022-07-27T08:10:44.546Z,18.98
2022-07-27T08:12:58.897Z,19.02
2022-07-27T08:15:14.284Z,19.1
2022-07-27T08:17:28.677Z,19.16
2022-07-27T08:19:43.054Z,19.27
2022-07-27T08:21:57.479Z,19.35
2022-07-27T08:24:11.841Z,19.360001
2022-07-27T08:26:26.199Z,19.35
2022-07-27T08:28:40.547Z,19.360001
2022-07-27T08:30:55.187Z,19.459999
2022-07-27T08:33:11.511Z,19.620001
2022-07-27T08:35:26.106Z,19.82
2022-07-27T08:37:40.416Z,19.98
2022-07-27T08:42:12.094Z,20.18
2022-07-27T08:44:26.448Z,20.219999
2022-07-27T08:46:40.882Z,20.33
2022-07-27T08:48:55.267Z,20.43
2022-07-27T08:51:09.532Z,20.57
2022-07-27T08:53:24.853Z,20.709999
2022-07-27T08:55:42.178Z,20.860001
2022-07-27T08:58:00.678Z,20.940001
2022-07-27T09:00:12.914Z,21
2022-07-27T09:02:27.480Z,21.08
2022-07-27T09:04:41.683Z,21.16
2022-07-27T09:06:57.300Z,21.26
2022-07-27T09:09:11.956Z,21.33
2022-07-27T09:11:26.135Z,21.4
2022-07-27T09:13:40.742Z,21.5
2022-07-27T09:18:12.358Z,21.73
2022-07-27T09:20:28.856Z,21.799999
2022-07-27T09:22:43.209Z,21.860001
2022-07-27T09:24:57.691Z,21.860001
2022-07-27T09:27:11.998Z,21.76
2022-07-27T09:29:26.477Z,21.59
2022-07-27T09:31:41.070Z,21.41
2022-07-27T09:33:56.243Z,21.23
2022-07-27T09:36:10.732Z,21.07
2022-07-27T09:38:25.865Z,20.950001
2022-07-27T09:40:40.188Z,20.9
2022-07-27T09:43:32.054Z,20.870001
2022-07-27T09:45:12.945Z,20.85
2022-07-27T09:47:29.286Z,20.860001
2022-07-27T09:49:45.683Z,20.870001
2022-07-27T09:52:01.873Z,20.870001
2022-07-27T09:54:17.397Z,20.85
2022-07-27T09:56:31.881Z,20.84
2022-07-27T09:58:46.763Z,20.85
2022-07-27T10:01:01.429Z,20.870001
2022-07-27T10:03:15.844Z,20.889999
2022-07-27T10:05:30.248Z,20.870001
2022-07-27T10:07:44.798Z,20.84
2022-07-27T10:09:59.287Z,20.809999
2022-07-27T10:12:13.679Z,20.790001
2022-07-27T10:14:30.029Z,20.790001
2022-07-27T10:16:44.518Z,20.799999
2022-07-27T10:19:00.286Z,20.809999
2022-07-27T10:21:16.784Z,20.83
2022-07-27T10:23:31.383Z,20.879999
2022-07-27T10:25:46.396Z,20.950001
2022-07-27T10:28:01.223Z,21.030001
2022-07-27T10:30:15.879Z,21.120001
2022-07-27T10:32:34.258Z,21.209999
2022-07-27T10:34:50.242Z,21.290001
2022-07-27T10:37:04.870Z,21.379999
2022-07-27T10:39:20.490Z,21.459999
2022-07-27T10:41:35.543Z,21.52
2022-07-27T10:43:49.816Z,21.57
2022-07-27T10:46:05.390Z,21.76
2022-07-27T10:48:19.755Z,21.950001
2022-07-27T10:50:34.131Z,22.09
2022-07-27T10:52:49.134Z,22.23
2022-07-27T10:55:03.734Z,22.4
2022-07-27T10:57:18.172Z,22.6
2022-07-27T10:59:51.204Z,22.790001
2022-07-27T11:01:49.896Z,22.83
2022-07-27T11:04:04.477Z,22.799999
2022-07-27T11:06:32.298Z,22.73
2022-07-27T11:08:40.985Z,22.66
2022-07-27T11:10:53.421Z,22.58
2022-07-27T11:13:09.753Z,22.549999
2022-07-27T11:15:22.094Z,22.530001
2022-07-27T11:18:05.090Z,22.51
2022-07-27T11:19:53.796Z,22.48
2022-07-27T11:22:18.141Z,22.42
2022-07-27T11:24:25.659Z,22.35
2022-07-27T11:26:40.005Z,22.290001
2022-07-27T11:28:54.365Z,22.299999
2022-07-27T11:31:08.984Z,22.280001
2022-07-27T11:33:25.324Z,22.280001
2022-07-27T11:35:39.864Z,22.299999
2022-07-27T11:37:54.179Z,22.32
2022-07-27T11:40:37.241Z,22.34
2022-07-27T11:42:26.088Z,22.35
2022-07-27T11:44:40.860Z,22.360001
2022-07-27T11:46:59.891Z,22.4
2022-07-27T11:49:11.536Z,22.459999
2022-07-27T11:51:25.958Z,22.5
2022-07-27T11:53:40.359Z,22.540001
2022-07-27T11:55:54.749Z,22.6
2022-07-27T11:58:10.674Z,22.629999
2022-07-27T12:00:25.102Z,22.629999
2022-07-27T12:02:40.878Z,22.639999
2022-07-27T12:05:00.601Z,22.66
2022-07-27T12:07:11.500Z,22.68
2022-07-27T12:09:26.300Z,22.76
2022-07-27T12:11:45.287Z,23.040001
2022-07-27T12:13:59.667Z,23.389999
2022-07-27T12:16:18.446Z,23.700001
2022-07-27T12:18:30.377Z,24
2022-07-27T12:20:45.132Z,24.299999
2022-07-27T12:22:59.569Z,24.59
2022-07-27T12:25:16.319Z,24.860001
2022-07-27T12:27:28.296Z,25.129999
2022-07-27T12:29:42.647Z,25.41
2022-07-27T12:31:57.031Z,25.68
2022-07-27T12:34:11.470Z,25.84
2022-07-27T12:36:25.874Z,25.91
2022-07-27T12:38:40.491Z,25.860001
2022-07-27T12:41:00.446Z,25.950001
2022-07-27T12:43:11.097Z,26.1
2022-07-27T12:45:26.664Z,26.08
2022-07-27T12:47:41.080Z,25.9
2022-07-27T12:49:55.601Z,25.629999
2022-07-27T12:52:10.419Z,25.34
2022-07-27T12:54:25.121Z,25.049999
2022-07-27T12:56:39.749Z,24.790001
2022-07-27T12:58:54.210Z,24.559999
2022-07-27T13:01:08.716Z,24.379999
2022-07-27T13:03:24.612Z,24.209999
2022-07-27T13:05:39.040Z,24.059999
2022-07-27T13:07:53.613Z,23.950001
